Queen Charlotte, Canada
Current Conditions -  °F | °C
As of 9:00 AM on Friday 28 Nov 2014 (Local Time) from CYZP Reporting Station
Overcast Overcast  
Wind Chill: 18°   Ceiling: 4600
Heat Index: 32°   Visibility: 9mi
Dew Point: 21°   Wind: 29mph
Humidity: 64%   Direction: 10°N
Pressure: 29.9"   Gusts: 40mph
Location:  53.25°N, 132.09°W
Report Text: CYZP 281700Z AUTO 01025G35KT 9SM BKN046 OVC055 00/M06 A2990 RMK SLP125
Loading
Personal Weather Stations






























Interactive Weather Map New forecast layout! Learn more

10-Day Weather Forecast

Advertisements
Track Severe Weather on mobile